createdAt,value
2022-12-17T00:00:28.310Z,106.25
2022-12-17T00:01:53.642Z,107.50
2022-12-17T00:03:16.500Z,106.43
2022-12-17T00:04:37.389Z,102.68
2022-12-17T00:05:58.009Z,107.43
2022-12-17T00:07:18.847Z,99.40
2022-12-17T00:09:59.665Z,106.03
2022-12-17T00:11:20.272Z,101.45
2022-12-17T00:12:41.096Z,100.05
2022-12-17T00:15:22.110Z,92.88
2022-12-17T00:18:07.055Z,95.88
2022-12-17T00:19:27.766Z,96.07
2022-12-17T00:20:48.358Z,99.28
2022-12-17T00:22:08.844Z,102.18
2022-12-17T00:23:31.288Z,100.70
2022-12-17T00:24:52.178Z,88.50
2022-12-17T00:28:54.440Z,92.47
2022-12-17T00:30:16.620Z,87.22
2022-12-17T00:31:38.585Z,94.13
2022-12-17T00:32:59.465Z,88.60
2022-12-17T00:35:50.411Z,90.22
2022-12-17T00:37:10.741Z,92.03
2022-12-17T00:38:33.752Z,95.55
2022-12-17T00:39:59.096Z,86.68
2022-12-17T00:41:22.738Z,88.10
2022-12-17T00:42:42.895Z,95.60
2022-12-17T00:44:05.616Z,92.40
2022-12-17T00:45:26.815Z,92.75
2022-12-17T00:46:47.526Z,93.15
2022-12-17T00:48:08.281Z,85.40
2022-12-17T00:49:30.020Z,86.57
2022-12-17T00:50:51.246Z,89.65
2022-12-17T00:52:12.438Z,97.50
2022-12-17T00:53:33.104Z,65.45
2022-12-17T00:54:53.780Z,92.75
2022-12-17T00:56:16.959Z,98.15
2022-12-17T00:57:37.627Z,89.90
2022-12-17T00:58:58.387Z,89.13
2022-12-17T01:01:39.414Z,88.72
2022-12-17T01:03:00.186Z,91.03
2022-12-17T01:04:20.847Z,83.43
2022-12-17T01:05:42.678Z,84.65
2022-12-17T01:07:03.809Z,91.40
2022-12-17T01:08:28.617Z,83.85
2022-12-17T01:09:48.988Z,84.28
2022-12-17T01:11:08.827Z,87.65
2022-12-17T01:13:51.031Z,63.42
2022-12-17T01:15:12.251Z,81.88
2022-12-17T01:16:33.734Z,83.47
2022-12-17T01:17:54.557Z,82.82
2022-12-17T01:19:17.327Z,91.50
2022-12-17T01:20:37.790Z,85.90
2022-12-17T01:22:00.245Z,63.65
2022-12-17T01:23:20.728Z,83.80
2022-12-17T01:24:41.291Z,84.70
2022-12-17T01:26:01.939Z,80.47
2022-12-17T01:27:22.536Z,78.82
2022-12-17T01:28:45.359Z,86.18
2022-12-17T01:30:05.963Z,85.00
2022-12-17T01:31:31.434Z,82.03
2022-12-17T01:32:54.940Z,79.63
2022-12-17T01:34:15.636Z,77.72
2022-12-17T01:35:36.404Z,88.70
2022-12-17T01:38:18.547Z,60.33
2022-12-17T01:39:39.401Z,85.68
2022-12-17T01:42:28.578Z,81.75
2022-12-17T01:43:50.918Z,80.25
2022-12-17T01:45:12.542Z,79.68
2022-12-17T01:46:33.278Z,78.85
2022-12-17T01:49:17.517Z,80.47
2022-12-17T01:50:39.810Z,80.65
2022-12-17T01:52:00.456Z,81.68
2022-12-17T01:53:24.898Z,79.00
2022-12-17T01:54:45.310Z,84.82
2022-12-17T01:56:06.998Z,77.72
2022-12-17T01:57:28.141Z,81.20
2022-12-17T01:58:49.311Z,78.75
2022-12-17T02:00:14.785Z,82.60
2022-12-17T02:01:36.091Z,78.22
2022-12-17T02:02:56.742Z,75.18
2022-12-17T02:04:18.014Z,77.30
2022-12-17T02:05:45.365Z,84.13
2022-12-17T02:07:17.757Z,74.72
2022-12-17T02:08:49.444Z,78.88
2022-12-17T02:10:21.384Z,76.40
2022-12-17T02:11:48.742Z,80.30
2022-12-17T02:13:14.316Z,86.63
2022-12-17T02:14:41.589Z,75.45
2022-12-17T02:16:07.355Z,79.93
2022-12-17T02:17:33.798Z,75.10
2022-12-17T02:18:59.009Z,77.05
2022-12-17T02:20:32.445Z,81.82
2022-12-17T02:21:55.698Z,74.32
2022-12-17T02:23:29.952Z,78.70
2022-12-17T02:24:58.116Z,80.15
2022-12-17T02:26:22.304Z,75.80
2022-12-17T02:27:44.805Z,71.88
2022-12-17T02:29:10.609Z,76.00
2022-12-17T02:30:31.165Z,74.78
2022-12-17T02:33:18.580Z,76.93
2022-12-17T02:34:40.875Z,75.90
2022-12-17T02:36:04.742Z,76.00
2022-12-17T02:37:28.434Z,73.72
2022-12-17T02:38:50.315Z,76.38
2022-12-17T02:40:10.961Z,82.63
2022-12-17T02:41:34.343Z,71.93
2022-12-17T02:42:56.929Z,77.03
2022-12-17T02:44:19.093Z,71.57
2022-12-17T02:45:40.526Z,67.75
2022-12-17T02:47:02.147Z,72.10
2022-12-17T02:48:24.971Z,66.22
2022-12-17T02:49:45.761Z,73.45
2022-12-17T02:51:07.056Z,70.05
2022-12-17T02:52:34.552Z,71.05
2022-12-17T02:54:10.386Z,69.75
2022-12-17T02:55:31.273Z,66.60
2022-12-17T02:58:13.584Z,66.18
2022-12-17T02:59:42.712Z,73.38
2022-12-17T03:01:08.888Z,69.78
2022-12-17T03:02:30.690Z,67.70
2022-12-17T03:04:02.672Z,67.47
2022-12-17T03:05:43.828Z,63.85
2022-12-17T03:07:05.143Z,70.57
2022-12-17T03:08:25.874Z,65.28
2022-12-17T03:09:46.283Z,68.53
2022-12-17T03:11:06.832Z,64.85
2022-12-17T03:12:27.200Z,68.00
2022-12-17T03:13:48.924Z,62.85
2022-12-17T03:15:09.820Z,67.45
2022-12-17T03:16:38.333Z,67.00
2022-12-17T03:17:58.720Z,75.18
2022-12-17T03:19:19.569Z,61.58
2022-12-17T03:20:40.299Z,66.85
2022-12-17T03:22:01.114Z,67.18
2022-12-17T03:24:41.920Z,62.60
2022-12-17T03:26:02.131Z,45.60
2022-12-17T03:27:22.862Z,67.93
2022-12-17T03:28:43.488Z,56.63
2022-12-17T03:30:05.467Z,52.20
2022-12-17T03:31:25.931Z,61.63
2022-12-17T03:32:48.806Z,62.60
2022-12-17T03:34:09.432Z,63.67
2022-12-17T03:35:30.073Z,65.10
2022-12-17T03:36:52.077Z,65.00
2022-12-17T03:38:12.413Z,64.03
2022-12-17T03:39:33.087Z,62.50
2022-12-17T03:40:53.342Z,62.65
2022-12-17T03:42:13.548Z,64.30
2022-12-17T03:43:34.414Z,49.50
2022-12-17T03:44:55.246Z,74.60
2022-12-17T03:46:17.298Z,67.85
2022-12-17T03:47:37.844Z,63.08
2022-12-17T03:48:58.440Z,60.53
2022-12-17T03:50:18.467Z,62.58
2022-12-17T03:51:38.908Z,45.70
2022-12-17T03:52:59.399Z,59.47
2022-12-17T03:54:25.443Z,57.25
2022-12-17T03:55:46.005Z,53.53
2022-12-17T03:58:30.310Z,53.92
2022-12-17T04:01:21.255Z,55.72
2022-12-17T04:02:42.123Z,55.75
2022-12-17T04:04:02.643Z,51.63
2022-12-17T04:05:23.951Z,53.47
2022-12-17T04:06:44.577Z,60.22
2022-12-17T04:08:04.946Z,63.65
2022-12-17T04:09:25.823Z,59.25
2022-12-17T04:12:11.794Z,57.70
2022-12-17T04:14:59.260Z,54.63
2022-12-17T04:16:21.465Z,53.97
2022-12-17T04:17:42.082Z,52.28
2022-12-17T04:19:02.362Z,53.50
2022-12-17T04:20:24.275Z,39.45
2022-12-17T04:21:44.417Z,52.90
2022-12-17T04:23:05.084Z,54.90
2022-12-17T04:24:25.728Z,52.40
2022-12-17T04:25:46.029Z,55.60
2022-12-17T04:27:06.740Z,61.30
2022-12-17T04:28:26.999Z,60.47
2022-12-17T04:29:47.308Z,59.50
2022-12-17T04:31:07.492Z,59.58
2022-12-17T04:32:34.878Z,43.45
2022-12-17T04:33:55.528Z,53.63
2022-12-17T04:35:15.748Z,53.35
2022-12-17T04:36:36.113Z,52.40
2022-12-17T04:37:56.816Z,55.65
2022-12-17T04:39:17.271Z,51.65
2022-12-17T04:40:40.656Z,51.58
2022-12-17T04:42:00.842Z,55.17
2022-12-17T04:43:24.467Z,54.90
2022-12-17T04:44:45.328Z,48.45
2022-12-17T04:47:30.119Z,52.40
2022-12-17T04:48:50.307Z,47.40
2022-12-17T04:50:10.687Z,51.85
2022-12-17T04:51:31.441Z,55.95
2022-12-17T04:52:51.694Z,49.88
2022-12-17T04:54:11.948Z,56.55
2022-12-17T04:55:32.667Z,50.83
2022-12-17T04:56:52.930Z,49.05
2022-12-17T04:58:13.129Z,52.70
2022-12-17T04:59:33.562Z,39.85
2022-12-17T05:00:53.990Z,47.08
2022-12-17T05:02:14.751Z,48.08
2022-12-17T05:04:57.933Z,49.92
2022-12-17T05:06:19.125Z,48.22
2022-12-17T05:07:39.962Z,48.88
2022-12-17T05:10:20.754Z,37.45
2022-12-17T05:11:41.348Z,52.97
2022-12-17T05:13:01.663Z,45.65
2022-12-17T05:14:22.376Z,46.78
2022-12-17T05:15:51.366Z,51.47
2022-12-17T05:17:13.932Z,54.35
2022-12-17T05:18:34.368Z,48.42
2022-12-17T05:19:56.356Z,44.05
2022-12-17T05:21:17.312Z,46.30
2022-12-17T05:22:37.970Z,45.28
2022-12-17T05:23:58.670Z,47.35
2022-12-17T05:25:18.942Z,48.95
2022-12-17T05:26:41.367Z,47.47
2022-12-17T05:28:01.722Z,50.08
2022-12-17T05:29:23.011Z,47.28
2022-12-17T05:30:43.313Z,45.85
2022-12-17T05:32:03.786Z,35.63
2022-12-17T05:33:24.534Z,52.05
2022-12-17T05:34:44.815Z,50.03
2022-12-17T05:36:06.628Z,42.10
2022-12-17T05:37:27.085Z,42.55
2022-12-17T05:38:47.512Z,41.15
2022-12-17T05:40:12.528Z,49.55
2022-12-17T05:41:33.695Z,44.15
2022-12-17T05:44:14.200Z,43.70
2022-12-17T05:45:34.911Z,34.47
2022-12-17T05:46:55.724Z,44.65
2022-12-17T05:48:16.373Z,47.58
2022-12-17T05:49:36.738Z,49.38
2022-12-17T05:50:57.122Z,42.40
2022-12-17T05:52:18.952Z,42.83
2022-12-17T05:53:39.475Z,45.40
2022-12-17T05:54:59.787Z,41.95
2022-12-17T05:56:20.557Z,30.13
2022-12-17T05:57:41.310Z,44.58
2022-12-17T05:59:01.712Z,42.42
2022-12-17T06:00:22.463Z,43.72
2022-12-17T06:01:43.298Z,43.50
2022-12-17T06:03:04.114Z,42.78
2022-12-17T06:04:24.658Z,44.50
2022-12-17T06:05:45.334Z,52.40
2022-12-17T06:07:05.852Z,46.65
2022-12-17T06:08:28.195Z,42.55
2022-12-17T06:09:48.977Z,53.35
2022-12-17T06:11:09.809Z,43.42
2022-12-17T06:12:30.695Z,40.90
2022-12-17T06:15:23.969Z,43.47
2022-12-17T06:16:44.297Z,44.28
2022-12-17T06:18:16.427Z,40.75
2022-12-17T06:19:37.540Z,40.58
2022-12-17T06:20:58.365Z,45.80
2022-12-17T06:23:55.071Z,45.72
2022-12-17T06:25:15.378Z,40.28
2022-12-17T06:26:35.838Z,44.83
2022-12-17T06:27:56.255Z,43.60
2022-12-17T06:29:16.479Z,45.92
2022-12-17T06:30:37.059Z,48.17
2022-12-17T06:31:57.207Z,47.05
2022-12-17T06:33:24.421Z,43.38
2022-12-17T06:34:45.135Z,43.97
2022-12-17T06:36:05.687Z,45.10
2022-12-17T06:37:25.992Z,45.05
2022-12-17T06:38:46.317Z,42.85
2022-12-17T06:40:04.625Z,44.42
2022-12-17T06:41:25.115Z,44.28
2022-12-17T06:42:45.523Z,46.38
2022-12-17T06:44:06.337Z,42.78
2022-12-17T06:46:47.295Z,44.47
2022-12-17T06:48:08.077Z,44.38
2022-12-17T06:50:48.713Z,43.58
2022-12-17T06:52:09.146Z,39.47
2022-12-17T06:53:29.934Z,44.72
2022-12-17T06:56:12.384Z,43.13
2022-12-17T06:57:36.532Z,52.38
2022-12-17T06:59:00.831Z,42.97
2022-12-17T07:00:21.711Z,47.00
2022-12-17T07:03:02.839Z,43.75
2022-12-17T07:05:44.460Z,44.13
2022-12-17T07:08:21.731Z,42.22
2022-12-17T07:09:41.889Z,41.45
2022-12-17T07:11:07.889Z,35.38
2022-12-17T07:12:29.398Z,44.10
2022-12-17T07:13:49.974Z,46.30
2022-12-17T07:15:10.210Z,51.28
2022-12-17T07:16:31.003Z,46.95
2022-12-17T07:19:17.287Z,45.15
2022-12-17T07:20:37.562Z,45.70
2022-12-17T07:21:57.795Z,49.63
2022-12-17T07:23:18.136Z,35.75
2022-12-17T07:24:39.033Z,51.92
2022-12-17T07:25:59.763Z,42.10
2022-12-17T07:27:20.556Z,47.97
2022-12-17T07:30:03.063Z,44.13
2022-12-17T07:31:24.064Z,51.35
2022-12-17T07:32:44.930Z,50.72
2022-12-17T07:34:05.477Z,45.90
2022-12-17T07:35:26.696Z,47.30
2022-12-17T07:36:47.426Z,49.05
2022-12-17T07:38:08.226Z,49.58
2022-12-17T07:40:54.320Z,38.28
2022-12-17T07:42:14.799Z,46.95
2022-12-17T07:43:35.529Z,47.17
2022-12-17T07:44:57.444Z,51.83
2022-12-17T07:46:17.772Z,50.45
2022-12-17T07:47:38.270Z,58.60
2022-12-17T07:48:58.707Z,58.35
2022-12-17T07:50:19.420Z,52.05
2022-12-17T07:52:59.744Z,48.22
2022-12-17T07:55:40.740Z,45.73
2022-12-17T07:57:01.482Z,47.58
2022-12-17T07:58:24.217Z,51.28
2022-12-17T07:59:44.971Z,54.75
2022-12-17T08:01:06.847Z,53.65
2022-12-17T08:02:28.878Z,53.30
2022-12-17T08:03:49.503Z,61.38
2022-12-17T08:05:10.162Z,49.17
2022-12-17T08:06:30.359Z,53.55
2022-12-17T08:07:56.524Z,49.80
2022-12-17T08:09:16.877Z,52.55
2022-12-17T08:10:40.235Z,52.05
2022-12-17T08:12:00.922Z,51.03
2022-12-17T08:13:23.776Z,55.38
2022-12-17T08:14:44.024Z,49.92
2022-12-17T08:16:05.130Z,42.17
2022-12-17T08:17:27.010Z,52.55
2022-12-17T08:18:47.796Z,50.92
2022-12-17T08:20:08.437Z,52.15
2022-12-17T08:21:29.219Z,49.10
2022-12-17T08:24:09.631Z,51.10
2022-12-17T08:25:30.399Z,41.67
2022-12-17T08:26:51.669Z,53.05
2022-12-17T08:28:41.587Z,51.70
2022-12-17T08:29:58.026Z,55.60
2022-12-17T08:31:18.837Z,56.45
2022-12-17T08:34:07.626Z,52.17
2022-12-17T08:35:28.864Z,55.20
2022-12-17T08:38:11.943Z,50.15
2022-12-17T08:39:32.162Z,50.80
2022-12-17T08:40:52.585Z,55.15
2022-12-17T08:42:13.042Z,53.35
2022-12-17T08:43:34.139Z,59.00
2022-12-17T08:44:54.954Z,54.35
2022-12-17T08:46:17.775Z,53.83
2022-12-17T08:47:38.386Z,52.53
2022-12-17T08:48:56.614Z,59.53
2022-12-17T08:50:17.325Z,59.78
2022-12-17T08:51:38.178Z,57.70
2022-12-17T08:54:19.081Z,44.63
2022-12-17T08:56:59.483Z,59.78
2022-12-17T08:58:25.113Z,56.28
2022-12-17T08:59:45.580Z,54.95
2022-12-17T09:01:05.979Z,47.30
2022-12-17T09:02:28.416Z,53.00
2022-12-17T09:03:49.406Z,60.92
2022-12-17T09:06:40.371Z,50.17
2022-12-17T09:08:01.212Z,53.25
2022-12-17T09:10:42.000Z,55.10
2022-12-17T09:12:02.684Z,54.30
2022-12-17T09:13:23.144Z,51.75
2022-12-17T09:14:43.819Z,49.53
2022-12-17T09:16:10.280Z,51.88
2022-12-17T09:17:30.908Z,49.42
2022-12-17T09:18:51.284Z,54.80
2022-12-17T09:20:13.240Z,44.53
2022-12-17T09:21:33.797Z,51.60
2022-12-17T09:22:54.586Z,50.45
2022-12-17T09:25:35.509Z,51.90
2022-12-17T09:26:56.233Z,54.45
2022-12-17T09:28:19.424Z,48.58
2022-12-17T09:29:39.737Z,50.45
2022-12-17T09:31:00.636Z,54.50
2022-12-17T09:32:21.281Z,50.47
2022-12-17T09:33:42.033Z,47.00
2022-12-17T09:35:02.236Z,51.67
2022-12-17T09:36:27.720Z,50.20
2022-12-17T09:37:48.057Z,50.08
2022-12-17T09:39:08.745Z,50.25
2022-12-17T09:40:37.325Z,48.72
2022-12-17T09:42:08.195Z,48.70
2022-12-17T09:43:41.690Z,52.20
2022-12-17T09:45:09.060Z,49.00
2022-12-17T09:46:39.270Z,47.00
2022-12-17T09:48:10.626Z,49.97
2022-12-17T09:49:36.618Z,49.30
2022-12-17T09:50:57.044Z,44.42
2022-12-17T09:52:27.760Z,48.85
2022-12-17T09:53:55.340Z,48.13
2022-12-17T09:55:15.960Z,43.85
2022-12-17T09:56:40.071Z,43.63
2022-12-17T09:58:00.869Z,49.22
2022-12-17T09:59:21.638Z,48.08
2022-12-17T10:02:04.196Z,41.90
2022-12-17T10:05:00.540Z,49.85
2022-12-17T10:06:32.056Z,42.60
2022-12-17T10:07:57.365Z,48.90
2022-12-17T10:09:19.473Z,42.45
2022-12-17T10:10:43.699Z,44.03
2022-12-17T10:12:04.481Z,44.58
2022-12-17T10:14:52.884Z,47.95
2022-12-17T10:16:13.609Z,45.35
2022-12-17T10:17:36.947Z,44.00
2022-12-17T10:18:57.355Z,48.17
2022-12-17T10:20:18.649Z,41.05
2022-12-17T10:21:50.984Z,41.38
2022-12-17T10:23:12.884Z,40.63
2022-12-17T10:24:33.624Z,46.10
2022-12-17T10:25:54.643Z,42.75
2022-12-17T10:27:15.946Z,40.85
2022-12-17T10:28:38.148Z,42.80
2022-12-17T10:30:00.429Z,42.55
2022-12-17T10:31:25.891Z,40.20
2022-12-17T10:32:47.110Z,42.22
2022-12-17T10:34:07.270Z,43.47
2022-12-17T10:35:35.245Z,39.80
2022-12-17T10:36:55.430Z,39.83
2022-12-17T10:38:18.877Z,38.10
2022-12-17T10:39:42.875Z,43.33
2022-12-17T10:41:03.506Z,41.13
2022-12-17T10:42:38.331Z,40.00
2022-12-17T10:44:00.130Z,39.38
2022-12-17T10:45:37.768Z,41.90
2022-12-17T10:47:03.821Z,35.53
2022-12-17T10:48:36.816Z,39.88
2022-12-17T10:49:57.111Z,40.88
2022-12-17T10:51:17.877Z,43.38
2022-12-17T10:54:08.156Z,38.85
2022-12-17T10:55:41.037Z,37.13
2022-12-17T10:57:01.613Z,36.10
2022-12-17T10:58:22.262Z,37.80
2022-12-17T10:59:50.990Z,37.92
2022-12-17T11:01:18.425Z,37.50
2022-12-17T11:02:44.664Z,38.78
2022-12-17T11:04:09.860Z,34.95
2022-12-17T11:05:32.695Z,35.70
2022-12-17T11:06:54.841Z,36.33
2022-12-17T11:08:17.170Z,36.47
2022-12-17T11:09:48.987Z,32.55
2022-12-17T11:11:09.615Z,28.55
2022-12-17T11:12:31.917Z,31.92
2022-12-17T11:13:58.886Z,29.88
2022-12-17T11:15:27.472Z,29.60
2022-12-17T11:16:52.627Z,33.17
2022-12-17T11:18:14.202Z,35.33
2022-12-17T11:19:49.780Z,34.08
2022-12-17T11:21:17.003Z,36.50
2022-12-17T11:22:47.306Z,33.40
2022-12-17T11:24:23.006Z,30.30
2022-12-17T11:25:52.627Z,31.13
2022-12-17T11:27:16.436Z,28.95
2022-12-17T11:28:41.951Z,26.73
2022-12-17T11:30:02.747Z,30.02
2022-12-17T11:31:39.610Z,29.50
2022-12-17T11:33:24.290Z,30.48
2022-12-17T11:34:53.212Z,27.25
2022-12-17T11:36:24.219Z,31.55
2022-12-17T11:37:56.870Z,31.35
2022-12-17T11:39:23.806Z,27.88
2022-12-17T11:40:52.888Z,28.95
2022-12-17T11:42:18.687Z,29.20
2022-12-17T11:43:48.028Z,27.42
2022-12-17T11:45:18.524Z,29.75
2022-12-17T11:46:53.271Z,28.90
2022-12-17T11:48:19.043Z,26.27
2022-12-17T11:49:50.346Z,25.73
2022-12-17T11:51:16.154Z,25.98
2022-12-17T11:52:49.553Z,24.98
2022-12-17T11:54:19.268Z,22.30
2022-12-17T11:55:48.682Z,24.15
2022-12-17T11:57:19.145Z,23.05
2022-12-17T11:58:51.003Z,17.30
2022-12-17T12:00:20.088Z,21.95
2022-12-17T12:01:48.065Z,23.75
2022-12-17T12:03:17.661Z,24.50
2022-12-17T12:05:00.439Z,26.58
2022-12-17T12:06:30.887Z,24.25
2022-12-17T12:08:05.621Z,23.35
2022-12-17T12:09:50.130Z,23.95
2022-12-17T12:11:21.077Z,27.77
2022-12-17T12:14:18.189Z,22.50
2022-12-17T12:15:45.897Z,22.60
2022-12-17T12:17:16.025Z,24.85
2022-12-17T12:18:45.160Z,23.13
2022-12-17T12:20:14.116Z,26.25
2022-12-17T12:21:51.068Z,22.33
2022-12-17T12:23:20.869Z,22.75
2022-12-17T12:24:56.966Z,21.88
2022-12-17T12:26:27.866Z,24.20
2022-12-17T12:27:59.340Z,21.90
2022-12-17T12:29:31.968Z,21.92
2022-12-17T12:31:00.538Z,21.45
2022-12-17T12:32:31.451Z,22.88
2022-12-17T12:35:21.726Z,18.75
2022-12-17T12:36:44.775Z,20.42
2022-12-17T12:38:14.139Z,21.63
2022-12-17T12:39:41.344Z,21.73
2022-12-17T12:41:07.740Z,21.70
2022-12-17T12:42:37.959Z,22.42
2022-12-17T12:44:05.785Z,16.45
2022-12-17T12:45:48.389Z,22.67
2022-12-17T12:47:15.654Z,24.02
2022-12-17T12:48:51.009Z,21.77
2022-12-17T12:50:20.961Z,20.00
2022-12-17T12:51:44.692Z,20.30
2022-12-17T12:53:05.552Z,21.90
2022-12-17T12:56:08.818Z,19.67
2022-12-17T12:57:50.315Z,22.08
2022-12-17T12:59:12.018Z,18.17
2022-12-17T13:00:52.624Z,22.88
2022-12-17T13:02:13.442Z,19.05
2022-12-17T13:05:04.123Z,22.02
2022-12-17T13:06:07.502Z,26.75
2022-12-17T13:07:22.471Z,21.27
2022-12-17T13:08:24.672Z,22.45
2022-12-17T13:09:40.093Z,22.77
2022-12-17T13:10:42.137Z,21.60
2022-12-17T13:11:47.352Z,25.20
2022-12-17T13:12:49.826Z,19.95
2022-12-17T13:13:56.913Z,24.15
2022-12-17T13:15:26.808Z,19.42
2022-12-17T13:16:44.200Z,18.80
2022-12-17T13:17:58.718Z,21.30
2022-12-17T13:19:18.963Z,21.33
2022-12-17T13:20:25.233Z,14.52
2022-12-17T13:21:29.622Z,19.15
2022-12-17T13:22:33.740Z,18.95
2022-12-17T13:23:39.076Z,19.85
2022-12-17T13:24:41.327Z,23.00
2022-12-17T13:25:44.439Z,18.27
2022-12-17T13:26:46.514Z,19.00
2022-12-17T13:27:50.717Z,22.08
2022-12-17T13:29:12.150Z,22.02
2022-12-17T13:30:39.594Z,22.67
2022-12-17T13:32:03.627Z,20.67
2022-12-17T13:33:19.144Z,21.70
2022-12-17T13:34:29.154Z,20.45
2022-12-17T13:35:41.997Z,18.85
2022-12-17T13:36:52.476Z,17.15
2022-12-17T13:38:05.687Z,19.85
2022-12-17T13:39:20.832Z,20.45
2022-12-17T13:40:35.520Z,17.73
2022-12-17T13:41:39.360Z,21.85
2022-12-17T13:42:46.326Z,19.23
2022-12-17T13:43:51.863Z,18.92
2022-12-17T13:44:56.066Z,22.67
2022-12-17T13:45:59.158Z,20.27
2022-12-17T13:47:01.279Z,18.67
2022-12-17T13:48:04.402Z,18.38
2022-12-17T13:49:17.474Z,19.27
2022-12-17T13:50:37.153Z,18.80
2022-12-17T13:51:40.318Z,20.85
2022-12-17T13:52:42.481Z,20.08
2022-12-17T13:53:52.958Z,22.77
2022-12-17T13:55:06.887Z,20.40
2022-12-17T13:56:11.739Z,21.95
2022-12-17T13:57:15.779Z,21.30
2022-12-17T13:58:23.577Z,20.75
2022-12-17T13:59:26.638Z,21.95
2022-12-17T14:00:32.428Z,20.02
2022-12-17T14:01:45.481Z,21.52
2022-12-17T14:02:48.870Z,24.05
2022-12-17T14:04:06.312Z,23.67
2022-12-17T14:05:26.918Z,22.10
2022-12-17T14:06:34.217Z,22.10
2022-12-17T14:07:40.620Z,22.02
2022-12-17T14:08:44.362Z,25.40
2022-12-17T14:09:46.693Z,19.48
2022-12-17T14:11:13.793Z,23.85
2022-12-17T14:12:23.667Z,24.45
2022-12-17T14:13:25.742Z,18.02
2022-12-17T14:14:32.760Z,21.02
2022-12-17T14:15:36.777Z,24.23
2022-12-17T14:16:47.445Z,25.17
2022-12-17T14:17:56.415Z,24.50
2022-12-17T14:18:59.671Z,24.00
2022-12-17T14:20:06.669Z,25.75
2022-12-17T14:21:09.962Z,22.25
2022-12-17T14:22:20.311Z,23.58
2022-12-17T14:23:27.791Z,23.77
2022-12-17T14:24:30.144Z,23.98
2022-12-17T14:25:37.985Z,24.10
2022-12-17T14:26:49.206Z,23.73
2022-12-17T14:27:55.820Z,27.70
2022-12-17T14:28:58.930Z,26.95
2022-12-17T14:30:01.433Z,24.75
2022-12-17T14:32:35.658Z,25.13
2022-12-17T14:33:38.322Z,25.85
2022-12-17T14:34:43.030Z,27.50
2022-12-17T14:35:52.402Z,24.70
2022-12-17T14:36:58.026Z,24.05
2022-12-17T14:38:01.045Z,25.70
2022-12-17T14:39:11.069Z,23.73
2022-12-17T14:40:16.422Z,27.50
2022-12-17T14:41:37.690Z,30.73
2022-12-17T14:42:40.754Z,28.98
2022-12-17T14:43:42.821Z,27.02
2022-12-17T14:44:54.153Z,27.67
2022-12-17T14:46:18.672Z,28.85
2022-12-17T14:47:26.097Z,28.42
2022-12-17T14:48:49.803Z,29.42
2022-12-17T14:49:58.671Z,27.75
2022-12-17T14:51:01.765Z,28.33
2022-12-17T14:52:14.246Z,31.42
2022-12-17T14:53:26.995Z,27.30
2022-12-17T14:54:30.787Z,30.10
2022-12-17T14:55:37.158Z,40.20
2022-12-17T14:56:40.252Z,34.53
2022-12-17T14:57:43.252Z,28.40
2022-12-17T14:58:45.947Z,32.55
2022-12-17T14:59:50.296Z,30.15
2022-12-17T15:00:57.137Z,29.58
2022-12-17T15:02:02.073Z,29.63
2022-12-17T15:03:06.861Z,31.30
2022-12-17T15:04:09.160Z,31.90
2022-12-17T15:05:15.649Z,33.72
2022-12-17T15:06:20.793Z,29.73
2022-12-17T15:07:25.690Z,35.38
2022-12-17T15:08:33.021Z,34.35
2022-12-17T15:09:35.927Z,36.13
2022-12-17T15:10:38.963Z,39.97
2022-12-17T15:11:40.980Z,35.50
2022-12-17T15:12:46.518Z,36.70
2022-12-17T15:13:53.010Z,42.75
2022-12-17T15:14:59.709Z,44.10
2022-12-17T15:16:02.198Z,44.65
2022-12-17T15:17:05.892Z,41.38
2022-12-17T15:18:09.941Z,40.67
2022-12-17T15:19:13.436Z,36.05
2022-12-17T15:20:18.685Z,30.08
2022-12-17T15:21:22.036Z,31.73
2022-12-17T15:22:24.512Z,28.17
2022-12-17T15:23:27.673Z,30.27
2022-12-17T15:24:30.301Z,29.67
2022-12-17T15:25:34.901Z,28.45
2022-12-17T15:26:39.710Z,32.13
2022-12-17T15:27:43.317Z,30.63
2022-12-17T15:28:46.709Z,27.58
2022-12-17T15:29:49.725Z,33.05
2022-12-17T15:30:52.867Z,33.80
2022-12-17T15:32:02.271Z,35.13
2022-12-17T15:33:06.522Z,29.80
2022-12-17T15:34:12.541Z,30.67
2022-12-17T15:35:15.211Z,34.40
2022-12-17T15:36:18.426Z,34.83
2022-12-17T15:37:25.626Z,32.33
2022-12-17T15:38:29.075Z,33.45
2022-12-17T15:39:31.406Z,36.83
2022-12-17T15:40:34.749Z,33.08
2022-12-17T15:41:55.239Z,34.55
2022-12-17T15:43:11.589Z,32.83
2022-12-17T15:44:14.744Z,33.80
2022-12-17T15:45:17.104Z,30.50
2022-12-17T15:46:20.220Z,33.13
2022-12-17T15:47:23.350Z,34.10
2022-12-17T15:48:26.447Z,35.58
2022-12-17T15:49:29.889Z,32.30
2022-12-17T15:50:33.034Z,31.35
2022-12-17T15:51:35.380Z,33.97
2022-12-17T15:52:39.557Z,34.72
2022-12-17T15:53:41.809Z,35.55
2022-12-17T15:54:45.263Z,34.28
2022-12-17T15:55:48.328Z,33.53
2022-12-17T15:56:53.529Z,37.03
2022-12-17T15:57:56.915Z,38.45
2022-12-17T15:58:59.560Z,38.05
2022-12-17T16:00:06.592Z,38.13
2022-12-17T16:01:08.650Z,37.88
2022-12-17T16:02:12.296Z,38.60
2022-12-17T16:03:15.709Z,36.08
2022-12-17T16:04:23.158Z,34.03
2022-12-17T16:05:31.613Z,37.75
2022-12-17T16:06:34.652Z,40.97
2022-12-17T16:07:44.497Z,34.65
2022-12-17T16:08:47.547Z,32.55
2022-12-17T16:09:50.209Z,32.80
2022-12-17T16:10:55.687Z,30.38
2022-12-17T16:11:58.076Z,34.30
2022-12-17T16:13:01.194Z,37.15
2022-12-17T16:14:03.424Z,29.00
2022-12-17T16:15:08.070Z,36.05
2022-12-17T16:16:10.187Z,31.20
2022-12-17T16:17:13.332Z,36.83
2022-12-17T16:18:17.747Z,31.58
2022-12-17T16:19:22.183Z,32.95
2022-12-17T16:20:25.422Z,36.00
2022-12-17T16:21:29.129Z,36.83
2022-12-17T16:22:32.207Z,33.22
2022-12-17T16:23:35.899Z,37.25
2022-12-17T16:24:38.958Z,38.00
2022-12-17T16:25:41.068Z,31.45
2022-12-17T16:26:44.147Z,35.25
2022-12-17T16:27:47.227Z,31.17
2022-12-17T16:28:49.343Z,33.42
2022-12-17T16:29:54.857Z,31.70
2022-12-17T16:30:59.886Z,31.67
2022-12-17T16:32:03.182Z,35.20
2022-12-17T16:33:06.257Z,29.08
2022-12-17T16:34:09.855Z,33.05
2022-12-17T16:35:14.055Z,34.25
2022-12-17T16:36:19.295Z,36.78
2022-12-17T16:37:31.227Z,32.50
2022-12-17T16:38:33.594Z,30.42
2022-12-17T16:39:39.147Z,30.50
2022-12-17T16:40:41.216Z,32.35
2022-12-17T16:41:44.507Z,32.38
2022-12-17T16:42:50.257Z,32.60
2022-12-17T16:43:54.479Z,29.83
2022-12-17T16:44:59.762Z,28.75
2022-12-17T16:46:09.136Z,31.25
2022-12-17T16:47:15.168Z,30.35
2022-12-17T16:48:19.717Z,31.88
2022-12-17T16:49:24.449Z,29.45
2022-12-17T16:50:30.497Z,29.00
2022-12-17T16:51:33.827Z,30.65
2022-12-17T16:52:37.400Z,33.63
2022-12-17T16:53:40.472Z,30.88
2022-12-17T16:54:43.476Z,31.40
2022-12-17T16:55:47.880Z,32.50
2022-12-17T16:56:51.757Z,30.88
2022-12-17T16:57:53.776Z,36.55
2022-12-17T16:58:57.893Z,31.88
2022-12-17T17:00:00.894Z,31.60
2022-12-17T17:01:03.027Z,28.77
2022-12-17T17:02:06.277Z,29.80
2022-12-17T17:03:10.392Z,33.00
2022-12-17T17:04:14.955Z,33.50
2022-12-17T17:05:17.117Z,30.10
2022-12-17T17:06:20.905Z,31.30
2022-12-17T17:07:22.935Z,26.10
2022-12-17T17:08:27.441Z,24.23
2022-12-17T17:09:30.479Z,27.60
2022-12-17T17:10:35.658Z,23.52
2022-12-17T17:11:39.175Z,28.83
2022-12-17T17:12:42.173Z,24.48
2022-12-17T17:13:44.995Z,28.52
2022-12-17T17:14:48.029Z,30.40
2022-12-17T17:15:50.197Z,30.25
2022-12-17T17:16:53.371Z,26.70
2022-12-17T17:18:01.894Z,27.85
2022-12-17T17:19:05.503Z,26.00
2022-12-17T17:20:09.236Z,36.83
2022-12-17T17:21:16.340Z,38.42
2022-12-17T17:22:19.385Z,40.80
2022-12-17T17:23:21.745Z,36.03
2022-12-17T17:24:26.572Z,37.63
2022-12-17T17:25:44.223Z,28.83
2022-12-17T17:26:52.584Z,27.42
2022-12-17T17:27:54.609Z,28.40
2022-12-17T17:28:57.790Z,27.38
2022-12-17T17:30:03.502Z,31.63
2022-12-17T17:31:11.647Z,30.42
2022-12-17T17:32:16.168Z,28.75
2022-12-17T17:33:18.252Z,25.55
2022-12-17T17:34:21.396Z,33.13
2022-12-17T17:35:23.389Z,26.70
2022-12-17T17:36:28.646Z,26.52
2022-12-17T17:37:31.916Z,31.27
2022-12-17T17:38:35.387Z,25.90
2022-12-17T17:39:40.180Z,27.98
2022-12-17T17:40:42.290Z,33.25
2022-12-17T17:41:45.309Z,32.40
2022-12-17T17:42:51.584Z,28.05
2022-12-17T17:43:57.198Z,31.98
2022-12-17T17:45:00.204Z,30.15
2022-12-17T17:46:06.292Z,30.33
2022-12-17T17:47:09.412Z,30.27
2022-12-17T17:48:11.597Z,30.83
2022-12-17T17:49:14.576Z,28.15
2022-12-17T17:50:16.742Z,28.35